createdAt,value
2023-03-22T00:01:46.301Z,2.63
2023-03-22T00:04:14.267Z,2.45
2023-03-22T00:06:42.108Z,2.42
2023-03-22T00:09:09.895Z,2.75
2023-03-22T00:11:39.112Z,2.70
2023-03-22T00:14:06.986Z,2.65
2023-03-22T00:16:35.015Z,4.05
2023-03-22T00:19:02.860Z,3.42
2023-03-22T00:21:31.072Z,4.72
2023-03-22T00:23:58.853Z,3.17
2023-03-22T00:26:26.632Z,3.85
2023-03-22T00:28:55.837Z,3.92
2023-03-22T00:31:23.698Z,2.90
2023-03-22T00:33:51.501Z,3.20
2023-03-22T00:36:19.300Z,3.20
2023-03-22T00:38:47.119Z,2.90
2023-03-22T00:41:17.091Z,3.90
2023-03-22T00:43:45.633Z,3.60
2023-03-22T00:46:16.536Z,3.67
2023-03-22T00:48:44.498Z,3.55
2023-03-22T00:51:14.530Z,3.35
2023-03-22T00:53:43.756Z,3.72
2023-03-22T00:56:15.551Z,3.38
2023-03-22T00:58:43.524Z,3.03
2023-03-22T01:01:14.172Z,3.35
2023-03-22T01:03:44.362Z,2.80
2023-03-22T01:06:12.509Z,3.15
2023-03-22T01:08:40.283Z,2.83
2023-03-22T01:11:09.722Z,2.40
2023-03-22T01:13:38.505Z,3.03
2023-03-22T01:16:07.517Z,2.90
2023-03-22T01:18:36.110Z,2.35
2023-03-22T01:21:06.053Z,2.33
2023-03-22T01:23:34.024Z,2.63
2023-03-22T01:26:02.436Z,3.25
2023-03-22T01:28:31.053Z,2.90
2023-03-22T01:31:02.775Z,2.55
2023-03-22T01:33:30.591Z,3.22
2023-03-22T01:35:58.406Z,2.92
2023-03-22T01:38:27.642Z,4.05
2023-03-22T01:40:55.667Z,3.88
2023-03-22T01:43:23.436Z,3.17
2023-03-22T01:45:51.913Z,2.75
2023-03-22T01:48:25.937Z,3.72
2023-03-22T01:51:03.299Z,3.20
2023-03-22T01:53:37.131Z,2.35
2023-03-22T01:58:35.323Z,3.33
2023-03-22T02:01:04.469Z,2.55
2023-03-22T02:03:39.163Z,2.78
2023-03-22T02:06:07.563Z,3.67
2023-03-22T02:08:36.635Z,3.15
2023-03-22T02:11:05.558Z,3.38
2023-03-22T02:13:48.818Z,3.95
2023-03-22T02:16:27.123Z,3.43
2023-03-22T02:19:09.880Z,3.25
2023-03-22T02:22:01.621Z,3.70
2023-03-22T02:25:09.036Z,2.90
2023-03-22T02:27:53.768Z,3.70
2023-03-22T02:31:01.438Z,4.35
2023-03-22T02:33:47.963Z,5.18
2023-03-22T02:36:36.303Z,6.00
2023-03-22T02:39:16.942Z,6.40
2023-03-22T02:41:56.865Z,6.97
2023-03-22T02:44:31.530Z,7.70
2023-03-22T02:47:05.571Z,6.90
2023-03-22T02:49:39.389Z,7.63
2023-03-22T02:54:46.832Z,7.18
2023-03-22T02:57:21.427Z,8.15
2023-03-22T02:59:52.673Z,8.15
2023-03-22T03:02:22.866Z,7.75
2023-03-22T03:04:53.983Z,7.80
2023-03-22T03:07:26.870Z,8.23
2023-03-22T03:09:56.100Z,8.13
2023-03-22T03:12:25.947Z,7.68
2023-03-22T03:14:53.849Z,9.27
2023-03-22T03:17:31.054Z,8.73
2023-03-22T03:20:15.101Z,8.38
2023-03-22T03:22:56.290Z,9.07
2023-03-22T03:25:30.854Z,8.73
2023-03-22T03:28:06.218Z,9.95
2023-03-22T03:30:40.784Z,8.82
2023-03-22T03:33:15.358Z,9.13
2023-03-22T03:35:49.494Z,8.98
2023-03-22T03:38:20.758Z,8.40
2023-03-22T03:40:53.661Z,9.68
2023-03-22T03:43:23.077Z,9.07
2023-03-22T03:45:51.868Z,9.45
2023-03-22T03:48:21.012Z,9.70
2023-03-22T03:50:51.350Z,8.70
2023-03-22T03:53:19.153Z,8.63
2023-03-22T03:55:46.877Z,8.15
2023-03-22T03:58:16.743Z,8.52
2023-03-22T04:00:46.062Z,9.75
2023-03-22T04:03:14.212Z,8.60
2023-03-22T04:05:42.020Z,9.30
2023-03-22T04:08:10.040Z,7.68
2023-03-22T04:10:38.155Z,8.55
2023-03-22T04:13:07.256Z,9.77
2023-03-22T04:15:36.388Z,8.68
2023-03-22T04:18:04.255Z,8.80
2023-03-22T04:20:31.972Z,8.40
2023-03-22T04:23:00.220Z,8.45
2023-03-22T04:25:30.429Z,8.60
2023-03-22T04:28:00.660Z,7.60
2023-03-22T04:30:28.429Z,7.78
2023-03-22T04:32:57.851Z,7.90
2023-03-22T04:35:25.597Z,7.28
2023-03-22T04:37:53.783Z,7.05
2023-03-22T04:40:21.614Z,8.43
2023-03-22T04:42:49.370Z,6.80
2023-03-22T04:45:17.194Z,7.60
2023-03-22T04:47:44.974Z,6.75
2023-03-22T04:50:14.122Z,6.70
2023-03-22T04:52:42.164Z,9.75
2023-03-22T04:55:10.341Z,6.60
2023-03-22T04:57:38.064Z,6.63
2023-03-22T05:00:08.465Z,6.20
2023-03-22T05:02:40.007Z,6.15
2023-03-22T05:05:08.926Z,5.97
2023-03-22T05:07:39.225Z,5.40
2023-03-22T05:10:08.442Z,5.72
2023-03-22T05:12:36.206Z,6.53
2023-03-22T05:15:06.150Z,5.70
2023-03-22T05:17:34.095Z,5.95
2023-03-22T05:20:09.215Z,5.45
2023-03-22T05:22:40.648Z,8.90
2023-03-22T05:25:10.361Z,5.53
2023-03-22T05:27:39.069Z,6.13
2023-03-22T05:30:09.660Z,4.97
2023-03-22T05:32:37.608Z,3.95
2023-03-22T05:35:06.973Z,3.90
2023-03-22T05:37:34.725Z,4.00
2023-03-22T05:40:05.288Z,3.45
2023-03-22T05:42:33.019Z,3.75
2023-03-22T05:45:00.743Z,6.53
2023-03-22T05:47:28.460Z,4.20
2023-03-22T05:49:56.252Z,3.60
2023-03-22T05:52:24.517Z,3.20
2023-03-22T05:54:52.242Z,3.47
2023-03-22T05:57:21.348Z,9.25
2023-03-22T05:59:49.140Z,3.40
2023-03-22T06:02:16.899Z,4.10
2023-03-22T06:04:44.733Z,3.13
2023-03-22T06:07:12.639Z,2.78
2023-03-22T06:09:40.368Z,5.25
2023-03-22T06:12:08.784Z,2.15
2023-03-22T06:14:38.074Z,2.95
2023-03-22T06:17:05.921Z,4.28
2023-03-22T06:19:33.735Z,2.58
2023-03-22T06:22:01.750Z,4.70
2023-03-22T06:24:29.697Z,3.05
2023-03-22T06:26:57.442Z,3.25
2023-03-22T06:29:25.204Z,4.43
2023-03-22T06:31:54.373Z,4.07
2023-03-22T06:34:22.112Z,2.60
2023-03-22T06:36:49.899Z,2.42
2023-03-22T06:39:17.684Z,2.65
2023-03-22T06:41:45.567Z,2.60
2023-03-22T06:44:13.700Z,2.90
2023-03-22T06:46:41.577Z,7.88
2023-03-22T06:49:10.761Z,3.08
2023-03-22T06:51:38.738Z,2.60
2023-03-22T06:54:06.635Z,2.22
2023-03-22T06:56:34.378Z,2.97
2023-03-22T06:59:02.071Z,2.42
2023-03-22T07:01:29.880Z,3.38
2023-03-22T07:03:57.786Z,2.78
2023-03-22T07:06:27.374Z,2.20
2023-03-22T07:08:55.486Z,2.72
2023-03-22T07:11:23.352Z,2.92
2023-03-22T07:13:51.290Z,2.35
2023-03-22T07:16:20.097Z,2.97
2023-03-22T07:18:48.269Z,2.92
2023-03-22T07:21:16.279Z,2.30
2023-03-22T07:23:45.380Z,3.05
2023-03-22T07:26:13.811Z,3.08
2023-03-22T07:28:44.567Z,3.10
2023-03-22T07:31:14.008Z,3.75
2023-03-22T07:33:42.290Z,4.22
2023-03-22T07:36:11.472Z,3.92
2023-03-22T07:38:39.231Z,2.53
2023-03-22T07:41:08.566Z,3.30
2023-03-22T07:43:50.758Z,2.85
2023-03-22T07:46:18.779Z,2.67
2023-03-22T07:48:46.914Z,2.83
2023-03-22T07:51:14.725Z,2.70
2023-03-22T07:53:42.465Z,2.58
2023-03-22T07:56:11.750Z,2.65
2023-03-22T07:58:42.468Z,3.15
2023-03-22T08:01:10.787Z,2.60
2023-03-22T08:03:39.087Z,3.50
2023-03-22T08:06:08.560Z,2.47
2023-03-22T08:08:37.854Z,2.58
2023-03-22T08:11:05.905Z,2.63
2023-03-22T08:13:35.721Z,2.78
2023-03-22T08:16:03.607Z,2.70
2023-03-22T08:18:31.534Z,5.55
2023-03-22T08:21:00.879Z,2.85
2023-03-22T08:23:40.852Z,2.45
2023-03-22T08:26:10.204Z,3.03
2023-03-22T08:28:39.367Z,2.72
2023-03-22T08:31:14.630Z,3.00
2023-03-22T08:33:43.786Z,3.85
2023-03-22T08:36:14.857Z,2.25
2023-03-22T08:38:45.221Z,2.65
2023-03-22T08:41:13.231Z,2.20
2023-03-22T08:43:42.486Z,2.38
2023-03-22T08:46:10.848Z,3.20
2023-03-22T08:48:41.660Z,5.22
2023-03-22T08:51:09.877Z,2.65
2023-03-22T08:53:37.725Z,2.35
2023-03-22T08:56:07.812Z,2.67
2023-03-22T08:58:36.281Z,2.10
2023-03-22T09:01:05.785Z,4.07
2023-03-22T09:03:33.659Z,2.92
2023-03-22T09:06:01.369Z,3.13
2023-03-22T09:08:29.200Z,2.72
2023-03-22T09:10:56.931Z,2.75
2023-03-22T09:13:24.739Z,3.33
2023-03-22T09:15:53.083Z,3.85
2023-03-22T09:18:22.493Z,3.05
2023-03-22T09:20:50.342Z,2.95
2023-03-22T09:23:18.155Z,3.50
2023-03-22T09:25:46.432Z,3.88
2023-03-22T09:28:14.407Z,3.45
2023-03-22T09:30:42.377Z,3.90
2023-03-22T09:33:10.329Z,3.60
2023-03-22T09:35:43.642Z,3.10
2023-03-22T09:38:12.376Z,3.22
2023-03-22T09:40:48.210Z,3.50
2023-03-22T09:43:16.730Z,3.30
2023-03-22T09:45:49.467Z,3.58
2023-03-22T09:48:21.186Z,6.60
2023-03-22T09:50:52.990Z,5.78
2023-03-22T09:53:22.164Z,3.75
2023-03-22T09:55:57.133Z,2.88
2023-03-22T09:58:29.673Z,3.00
2023-03-22T10:01:01.267Z,2.65
2023-03-22T10:03:48.991Z,2.75
2023-03-22T10:06:21.391Z,3.35
2023-03-22T10:08:57.273Z,5.20
2023-03-22T10:11:37.779Z,3.42
2023-03-22T10:14:19.556Z,2.72
2023-03-22T10:16:48.765Z,2.97
2023-03-22T10:19:22.954Z,2.78
2023-03-22T10:21:55.568Z,2.80
2023-03-22T10:24:28.246Z,3.75
2023-03-22T10:26:56.792Z,8.20
2023-03-22T10:29:29.497Z,3.85
2023-03-22T10:32:03.532Z,2.85
2023-03-22T10:34:32.704Z,3.03
2023-03-22T10:37:06.738Z,2.70
2023-03-22T10:39:39.372Z,2.97
2023-03-22T10:42:14.051Z,2.78
2023-03-22T10:44:48.838Z,2.70
2023-03-22T10:47:18.930Z,3.60
2023-03-22T10:49:53.061Z,3.35
2023-03-22T10:52:37.628Z,2.72
2023-03-22T10:55:07.686Z,4.70
2023-03-22T10:57:35.472Z,2.90
2023-03-22T11:00:11.501Z,2.95
2023-03-22T11:02:48.305Z,3.15
2023-03-22T11:05:23.881Z,3.95
2023-03-22T11:07:53.517Z,3.28
2023-03-22T11:10:28.504Z,3.17
2023-03-22T11:13:11.717Z,2.70
2023-03-22T11:15:42.222Z,2.30
2023-03-22T11:18:16.048Z,2.50
2023-03-22T11:23:18.008Z,3.63
2023-03-22T11:25:48.036Z,2.50
2023-03-22T11:28:19.999Z,2.05
2023-03-22T11:31:04.460Z,2.38
2023-03-22T11:33:32.971Z,1.95
2023-03-22T11:36:02.505Z,3.50
2023-03-22T11:38:38.072Z,2.90
2023-03-22T11:41:09.691Z,2.30
2023-03-22T11:43:40.282Z,2.28
2023-03-22T11:46:09.572Z,1.90
2023-03-22T11:48:40.004Z,2.15
2023-03-22T11:51:10.832Z,2.28
2023-03-22T11:53:41.645Z,2.50
2023-03-22T11:56:12.176Z,2.72
2023-03-22T11:58:55.679Z,2.28
2023-03-22T12:01:35.559Z,3.13
2023-03-22T12:04:06.722Z,2.10
2023-03-22T12:06:38.228Z,2.47
2023-03-22T12:09:17.577Z,2.05
2023-03-22T12:11:48.901Z,2.58
2023-03-22T12:14:20.571Z,2.55
2023-03-22T12:16:51.732Z,2.67
2023-03-22T12:19:30.632Z,2.10
2023-03-22T12:21:59.947Z,2.00
2023-03-22T12:24:31.806Z,2.20
2023-03-22T12:27:02.740Z,26.42
2023-03-22T12:29:31.782Z,2.13
2023-03-22T12:32:03.476Z,2.05
2023-03-22T12:34:39.869Z,2.25
2023-03-22T12:37:10.056Z,2.65
2023-03-22T12:39:44.148Z,2.35
2023-03-22T12:42:22.603Z,3.40
2023-03-22T12:45:04.127Z,2.85
2023-03-22T12:47:40.622Z,2.28
2023-03-22T12:50:13.974Z,1.90
2023-03-22T12:52:46.246Z,2.67
2023-03-22T12:55:23.951Z,2.40
2023-03-22T12:57:54.431Z,1.90
2023-03-22T13:00:27.315Z,2.25
2023-03-22T13:02:59.975Z,2.30
2023-03-22T13:05:29.976Z,1.77
2023-03-22T13:08:03.505Z,2.50
2023-03-22T13:10:50.533Z,2.40
2023-03-22T13:13:48.176Z,2.65
2023-03-22T13:16:24.382Z,2.85
2023-03-22T13:19:26.893Z,2.30
2023-03-22T13:22:15.925Z,2.65
2023-03-22T13:25:00.212Z,2.72
2023-03-22T13:27:38.891Z,2.95
2023-03-22T13:30:15.966Z,2.67
2023-03-22T13:32:54.571Z,3.13
2023-03-22T13:35:27.989Z,2.63
2023-03-22T13:38:02.874Z,2.85
2023-03-22T13:40:36.153Z,2.75
2023-03-22T13:43:22.541Z,2.92
2023-03-22T13:46:13.073Z,2.97
2023-03-22T13:48:44.152Z,2.95
2023-03-22T13:51:17.658Z,3.08
2023-03-22T13:53:57.065Z,2.53
2023-03-22T13:56:53.301Z,3.53
2023-03-22T13:59:27.104Z,2.20
2023-03-22T14:04:31.256Z,2.20
2023-03-22T14:09:34.537Z,3.40
2023-03-22T14:12:09.763Z,2.78
2023-03-22T14:14:44.025Z,3.08
2023-03-22T14:17:22.270Z,2.50
2023-03-22T14:19:51.501Z,4.57
